<?xml version="1.0" encoding="UTF-8" standalone="no" ?>
<gpx xmlns="http://www.topografix.com/GPX/1/1" xmlns:xsi="http://www.w3.org/2001/XMLSchema-instance" xsi:schemaLocation="http://www.topografix.com/GPX/1/1 http://www.topografix.com/GPX/1/1/gpx.xsd" version="1.1" creator="VisuGPX - https://www.visugpx.com">
  <metadata>
    <name>CO orientaix 2011-10-02</name>
    <desc><![CDATA[course famille 2h30]]></desc>
  </metadata>
  <trk>
    <name><![CDATA[CO orientaix 2011-10-02_1]]></name>
    <trkseg>
      <trkpt lat="45.67826" lon="6.03276">
        <ele>1312</ele>
        <time>2011-10-02T07:19:57Z</time>
      </trkpt>
      <trkpt lat="45.67877" lon="6.03282">
        <ele>1307</ele>
        <time>2011-10-02T07:20:17Z</time>
      </trkpt>
      <trkpt lat="45.67926" lon="6.03304">
        <ele>1306</ele>
        <time>2011-10-02T07:20:37Z</time>
      </trkpt>
      <trkpt lat="45.67978" lon="6.03309">
        <ele>1306</ele>
        <time>2011-10-02T07:20:57Z</time>
      </trkpt>
      <trkpt lat="45.68028" lon="6.03326">
        <ele>1305</ele>
        <time>2011-10-02T07:21:17Z</time>
      </trkpt>
      <trkpt lat="45.68073" lon="6.03291">
        <ele>1305</ele>
        <time>2011-10-02T07:21:37Z</time>
      </trkpt>
      <trkpt lat="45.68102" lon="6.03248">
        <ele>1305</ele>
        <time>2011-10-02T07:21:57Z</time>
      </trkpt>
      <trkpt lat="45.68137" lon="6.03215">
        <ele>1302</ele>
        <time>2011-10-02T07:22:17Z</time>
      </trkpt>
      <trkpt lat="45.6817" lon="6.03185">
        <ele>1300</ele>
        <time>2011-10-02T07:22:38Z</time>
      </trkpt>
      <trkpt lat="45.68218" lon="6.03175">
        <ele>1309</ele>
        <time>2011-10-02T07:22:58Z</time>
      </trkpt>
      <trkpt lat="45.68259" lon="6.03171">
        <ele>1310</ele>
        <time>2011-10-02T07:23:19Z</time>
      </trkpt>
      <trkpt lat="45.68283" lon="6.03217">
        <ele>1314</ele>
        <time>2011-10-02T07:23:39Z</time>
      </trkpt>
      <trkpt lat="45.68307" lon="6.03273">
        <ele>1317</ele>
        <time>2011-10-02T07:24:00Z</time>
      </trkpt>
      <trkpt lat="45.68341" lon="6.03304">
        <ele>1317</ele>
        <time>2011-10-02T07:24:20Z</time>
      </trkpt>
      <trkpt lat="45.6839" lon="6.03314">
        <ele>1319</ele>
        <time>2011-10-02T07:24:41Z</time>
      </trkpt>
      <trkpt lat="45.68442" lon="6.03305">
        <ele>1321</ele>
        <time>2011-10-02T07:25:01Z</time>
      </trkpt>
      <trkpt lat="45.68481" lon="6.03259">
        <ele>1321</ele>
        <time>2011-10-02T07:25:23Z</time>
      </trkpt>
      <trkpt lat="45.68487" lon="6.03262">
        <ele>1329</ele>
        <time>2011-10-02T07:25:43Z</time>
      </trkpt>
      <trkpt lat="45.68483" lon="6.03259">
        <ele>1331</ele>
        <time>2011-10-02T07:26:05Z</time>
      </trkpt>
      <trkpt lat="45.68478" lon="6.03249">
        <ele>1331</ele>
        <time>2011-10-02T07:26:27Z</time>
      </trkpt>
      <trkpt lat="45.6848" lon="6.03247">
        <ele>1334</ele>
        <time>2011-10-02T07:26:49Z</time>
      </trkpt>
      <trkpt lat="45.68478" lon="6.03247">
        <ele>1335</ele>
        <time>2011-10-02T07:27:10Z</time>
      </trkpt>
      <trkpt lat="45.68498" lon="6.03247">
        <ele>1335</ele>
        <time>2011-10-02T07:27:30Z</time>
      </trkpt>
      <trkpt lat="45.68539" lon="6.03245">
        <ele>1335</ele>
        <time>2011-10-02T07:27:50Z</time>
      </trkpt>
      <trkpt lat="45.68584" lon="6.03249">
        <ele>1334</ele>
        <time>2011-10-02T07:28:10Z</time>
      </trkpt>
      <trkpt lat="45.68632" lon="6.03247">
        <ele>1333</ele>
        <time>2011-10-02T07:28:30Z</time>
      </trkpt>
      <trkpt lat="45.68673" lon="6.0328">
        <ele>1332</ele>
        <time>2011-10-02T07:28:50Z</time>
      </trkpt>
      <trkpt lat="45.68719" lon="6.03322">
        <ele>1329</ele>
        <time>2011-10-02T07:29:10Z</time>
      </trkpt>
      <trkpt lat="45.68765" lon="6.03375">
        <ele>1324</ele>
        <time>2011-10-02T07:29:30Z</time>
      </trkpt>
      <trkpt lat="45.68806" lon="6.03418">
        <ele>1322</ele>
        <time>2011-10-02T07:29:50Z</time>
      </trkpt>
      <trkpt lat="45.68835" lon="6.03471">
        <ele>1316</ele>
        <time>2011-10-02T07:30:10Z</time>
      </trkpt>
      <trkpt lat="45.68829" lon="6.03543">
        <ele>1315</ele>
        <time>2011-10-02T07:30:30Z</time>
      </trkpt>
      <trkpt lat="45.68827" lon="6.03616">
        <ele>1315</ele>
        <time>2011-10-02T07:30:50Z</time>
      </trkpt>
      <trkpt lat="45.68864" lon="6.03663">
        <ele>1316</ele>
        <time>2011-10-02T07:31:10Z</time>
      </trkpt>
      <trkpt lat="45.68899" lon="6.03678">
        <ele>1322</ele>
        <time>2011-10-02T07:31:30Z</time>
      </trkpt>
      <trkpt lat="45.68946" lon="6.03657">
        <ele>1322</ele>
        <time>2011-10-02T07:31:50Z</time>
      </trkpt>
      <trkpt lat="45.68951" lon="6.0362">
        <ele>1320</ele>
        <time>2011-10-02T07:32:11Z</time>
      </trkpt>
      <trkpt lat="45.68944" lon="6.03607">
        <ele>1317</ele>
        <time>2011-10-02T07:32:32Z</time>
      </trkpt>
      <trkpt lat="45.68938" lon="6.03608">
        <ele>1323</ele>
        <time>2011-10-02T07:32:53Z</time>
      </trkpt>
      <trkpt lat="45.6894" lon="6.03602">
        <ele>1326</ele>
        <time>2011-10-02T07:33:17Z</time>
      </trkpt>
      <trkpt lat="45.68935" lon="6.03609">
        <ele>1331</ele>
        <time>2011-10-02T07:33:38Z</time>
      </trkpt>
      <trkpt lat="45.68946" lon="6.03625">
        <ele>1331</ele>
        <time>2011-10-02T07:33:58Z</time>
      </trkpt>
      <trkpt lat="45.68968" lon="6.03637">
        <ele>1331</ele>
        <time>2011-10-02T07:34:18Z</time>
      </trkpt>
      <trkpt lat="45.68996" lon="6.03682">
        <ele>1325</ele>
        <time>2011-10-02T07:34:38Z</time>
      </trkpt>
      <trkpt lat="45.69022" lon="6.03747">
        <ele>1325</ele>
        <time>2011-10-02T07:34:58Z</time>
      </trkpt>
      <trkpt lat="45.69035" lon="6.03815">
        <ele>1325</ele>
        <time>2011-10-02T07:35:18Z</time>
      </trkpt>
      <trkpt lat="45.69074" lon="6.03857">
        <ele>1324</ele>
        <time>2011-10-02T07:35:38Z</time>
      </trkpt>
      <trkpt lat="45.69121" lon="6.03868">
        <ele>1324</ele>
        <time>2011-10-02T07:35:58Z</time>
      </trkpt>
      <trkpt lat="45.69167" lon="6.03904">
        <ele>1324</ele>
        <time>2011-10-02T07:36:18Z</time>
      </trkpt>
      <trkpt lat="45.69203" lon="6.03928">
        <ele>1324</ele>
        <time>2011-10-02T07:36:38Z</time>
      </trkpt>
      <trkpt lat="45.69256" lon="6.03959">
        <ele>1313</ele>
        <time>2011-10-02T07:36:58Z</time>
      </trkpt>
      <trkpt lat="45.69281" lon="6.0402">
        <ele>1309</ele>
        <time>2011-10-02T07:37:18Z</time>
      </trkpt>
      <trkpt lat="45.69315" lon="6.04073">
        <ele>1309</ele>
        <time>2011-10-02T07:37:38Z</time>
      </trkpt>
      <trkpt lat="45.69348" lon="6.04115">
        <ele>1317</ele>
        <time>2011-10-02T07:37:58Z</time>
      </trkpt>
      <trkpt lat="45.69388" lon="6.04107">
        <ele>1322</ele>
        <time>2011-10-02T07:38:18Z</time>
      </trkpt>
      <trkpt lat="45.69448" lon="6.04075">
        <ele>1311</ele>
        <time>2011-10-02T07:38:38Z</time>
      </trkpt>
      <trkpt lat="45.69484" lon="6.04047">
        <ele>1311</ele>
        <time>2011-10-02T07:38:58Z</time>
      </trkpt>
      <trkpt lat="45.69491" lon="6.04043">
        <ele>1309</ele>
        <time>2011-10-02T07:39:21Z</time>
      </trkpt>
      <trkpt lat="45.69494" lon="6.04043">
        <ele>1310</ele>
        <time>2011-10-02T07:39:41Z</time>
      </trkpt>
      <trkpt lat="45.69496" lon="6.04045">
        <ele>1310</ele>
        <time>2011-10-02T07:40:05Z</time>
      </trkpt>
      <trkpt lat="45.69493" lon="6.04047">
        <ele>1310</ele>
        <time>2011-10-02T07:40:26Z</time>
      </trkpt>
      <trkpt lat="45.69495" lon="6.04051">
        <ele>1310</ele>
        <time>2011-10-02T07:40:51Z</time>
      </trkpt>
      <trkpt lat="45.69487" lon="6.04049">
        <ele>1314</ele>
        <time>2011-10-02T07:41:11Z</time>
      </trkpt>
      <trkpt lat="45.69482" lon="6.04082">
        <ele>1314</ele>
        <time>2011-10-02T07:41:31Z</time>
      </trkpt>
      <trkpt lat="45.69489" lon="6.04133">
        <ele>1308</ele>
        <time>2011-10-02T07:41:51Z</time>
      </trkpt>
      <trkpt lat="45.69504" lon="6.04208">
        <ele>1306</ele>
        <time>2011-10-02T07:42:11Z</time>
      </trkpt>
      <trkpt lat="45.69548" lon="6.0415">
        <ele>1294</ele>
        <time>2011-10-02T07:42:31Z</time>
      </trkpt>
      <trkpt lat="45.69591" lon="6.04126">
        <ele>1292</ele>
        <time>2011-10-02T07:42:51Z</time>
      </trkpt>
      <trkpt lat="45.69631" lon="6.04161">
        <ele>1287</ele>
        <time>2011-10-02T07:43:12Z</time>
      </trkpt>
      <trkpt lat="45.69683" lon="6.04175">
        <ele>1285</ele>
        <time>2011-10-02T07:43:32Z</time>
      </trkpt>
      <trkpt lat="45.6971" lon="6.04214">
        <ele>1294</ele>
        <time>2011-10-02T07:43:56Z</time>
      </trkpt>
      <trkpt lat="45.69711" lon="6.04209">
        <ele>1310</ele>
        <time>2011-10-02T07:44:17Z</time>
      </trkpt>
      <trkpt lat="45.69706" lon="6.04215">
        <ele>1315</ele>
        <time>2011-10-02T07:44:37Z</time>
      </trkpt>
      <trkpt lat="45.69735" lon="6.04161">
        <ele>1299</ele>
        <time>2011-10-02T07:44:57Z</time>
      </trkpt>
      <trkpt lat="45.69752" lon="6.04115">
        <ele>1298</ele>
        <time>2011-10-02T07:45:17Z</time>
      </trkpt>
      <trkpt lat="45.69772" lon="6.04074">
        <ele>1301</ele>
        <time>2011-10-02T07:45:38Z</time>
      </trkpt>
      <trkpt lat="45.69767" lon="6.04064">
        <ele>1314</ele>
        <time>2011-10-02T07:45:58Z</time>
      </trkpt>
      <trkpt lat="45.69767" lon="6.04063">
        <ele>1319</ele>
        <time>2011-10-02T07:46:19Z</time>
      </trkpt>
      <trkpt lat="45.69775" lon="6.04067">
        <ele>1318</ele>
        <time>2011-10-02T07:46:39Z</time>
      </trkpt>
      <trkpt lat="45.69776" lon="6.04072">
        <ele>1318</ele>
        <time>2011-10-02T07:47:00Z</time>
      </trkpt>
      <trkpt lat="45.69788" lon="6.04119">
        <ele>1313</ele>
        <time>2011-10-02T07:47:20Z</time>
      </trkpt>
      <trkpt lat="45.69811" lon="6.04178">
        <ele>1298</ele>
        <time>2011-10-02T07:47:40Z</time>
      </trkpt>
      <trkpt lat="45.69844" lon="6.042">
        <ele>1298</ele>
        <time>2011-10-02T07:48:00Z</time>
      </trkpt>
      <trkpt lat="45.69884" lon="6.04198">
        <ele>1302</ele>
        <time>2011-10-02T07:48:20Z</time>
      </trkpt>
      <trkpt lat="45.69898" lon="6.04261">
        <ele>1305</ele>
        <time>2011-10-02T07:48:40Z</time>
      </trkpt>
      <trkpt lat="45.69904" lon="6.04275">
        <ele>1305</ele>
        <time>2011-10-02T07:49:02Z</time>
      </trkpt>
      <trkpt lat="45.69908" lon="6.04278">
        <ele>1303</ele>
        <time>2011-10-02T07:49:22Z</time>
      </trkpt>
      <trkpt lat="45.69911" lon="6.04283">
        <ele>1304</ele>
        <time>2011-10-02T07:49:42Z</time>
      </trkpt>
      <trkpt lat="45.69904" lon="6.04318">
        <ele>1304</ele>
        <time>2011-10-02T07:50:02Z</time>
      </trkpt>
      <trkpt lat="45.69883" lon="6.04359">
        <ele>1304</ele>
        <time>2011-10-02T07:50:22Z</time>
      </trkpt>
      <trkpt lat="45.69882" lon="6.04368">
        <ele>1306</ele>
        <time>2011-10-02T07:50:43Z</time>
      </trkpt>
      <trkpt lat="45.69897" lon="6.0437">
        <ele>1300</ele>
        <time>2011-10-02T07:51:04Z</time>
      </trkpt>
      <trkpt lat="45.69897" lon="6.04378">
        <ele>1312</ele>
        <time>2011-10-02T07:51:27Z</time>
      </trkpt>
      <trkpt lat="45.69894" lon="6.04356">
        <ele>1300</ele>
        <time>2011-10-02T07:51:48Z</time>
      </trkpt>
      <trkpt lat="45.69912" lon="6.04306">
        <ele>1300</ele>
        <time>2011-10-02T07:52:08Z</time>
      </trkpt>
      <trkpt lat="45.69953" lon="6.04276">
        <ele>1302</ele>
        <time>2011-10-02T07:52:29Z</time>
      </trkpt>
      <trkpt lat="45.69959" lon="6.04239">
        <ele>1302</ele>
        <time>2011-10-02T07:52:49Z</time>
      </trkpt>
      <trkpt lat="45.69968" lon="6.04202">
        <ele>1305</ele>
        <time>2011-10-02T07:53:09Z</time>
      </trkpt>
      <trkpt lat="45.69975" lon="6.0417">
        <ele>1310</ele>
        <time>2011-10-02T07:53:29Z</time>
      </trkpt>
      <trkpt lat="45.69984" lon="6.04134">
        <ele>1311</ele>
        <time>2011-10-02T07:53:49Z</time>
      </trkpt>
      <trkpt lat="45.69993" lon="6.04098">
        <ele>1314</ele>
        <time>2011-10-02T07:54:09Z</time>
      </trkpt>
      <trkpt lat="45.69996" lon="6.04061">
        <ele>1320</ele>
        <time>2011-10-02T07:54:29Z</time>
      </trkpt>
      <trkpt lat="45.70005" lon="6.04027">
        <ele>1322</ele>
        <time>2011-10-02T07:54:49Z</time>
      </trkpt>
      <trkpt lat="45.70016" lon="6.04001">
        <ele>1322</ele>
        <time>2011-10-02T07:55:10Z</time>
      </trkpt>
      <trkpt lat="45.70025" lon="6.03964">
        <ele>1326</ele>
        <time>2011-10-02T07:55:30Z</time>
      </trkpt>
      <trkpt lat="45.70035" lon="6.03926">
        <ele>1328</ele>
        <time>2011-10-02T07:55:50Z</time>
      </trkpt>
      <trkpt lat="45.70042" lon="6.03885">
        <ele>1332</ele>
        <time>2011-10-02T07:56:10Z</time>
      </trkpt>
      <trkpt lat="45.70049" lon="6.03846">
        <ele>1334</ele>
        <time>2011-10-02T07:56:30Z</time>
      </trkpt>
      <trkpt lat="45.70065" lon="6.03809">
        <ele>1336</ele>
        <time>2011-10-02T07:56:51Z</time>
      </trkpt>
      <trkpt lat="45.70084" lon="6.03779">
        <ele>1338</ele>
        <time>2011-10-02T07:57:12Z</time>
      </trkpt>
      <trkpt lat="45.701" lon="6.03785">
        <ele>1342</ele>
        <time>2011-10-02T07:57:33Z</time>
      </trkpt>
      <trkpt lat="45.70107" lon="6.03792">
        <ele>1347</ele>
        <time>2011-10-02T07:57:53Z</time>
      </trkpt>
      <trkpt lat="45.70121" lon="6.03805">
        <ele>1354</ele>
        <time>2011-10-02T07:58:13Z</time>
      </trkpt>
      <trkpt lat="45.70139" lon="6.03819">
        <ele>1359</ele>
        <time>2011-10-02T07:58:33Z</time>
      </trkpt>
      <trkpt lat="45.70148" lon="6.03834">
        <ele>1364</ele>
        <time>2011-10-02T07:58:54Z</time>
      </trkpt>
      <trkpt lat="45.70155" lon="6.03853">
        <ele>1370</ele>
        <time>2011-10-02T07:59:15Z</time>
      </trkpt>
      <trkpt lat="45.70152" lon="6.03872">
        <ele>1375</ele>
        <time>2011-10-02T07:59:42Z</time>
      </trkpt>
      <trkpt lat="45.70153" lon="6.03878">
        <ele>1376</ele>
        <time>2011-10-02T08:00:03Z</time>
      </trkpt>
      <trkpt lat="45.70167" lon="6.03898">
        <ele>1381</ele>
        <time>2011-10-02T08:00:24Z</time>
      </trkpt>
      <trkpt lat="45.70185" lon="6.03916">
        <ele>1381</ele>
        <time>2011-10-02T08:00:44Z</time>
      </trkpt>
      <trkpt lat="45.70206" lon="6.03939">
        <ele>1381</ele>
        <time>2011-10-02T08:01:04Z</time>
      </trkpt>
      <trkpt lat="45.70236" lon="6.03963">
        <ele>1380</ele>
        <time>2011-10-02T08:01:24Z</time>
      </trkpt>
      <trkpt lat="45.7026" lon="6.03977">
        <ele>1377</ele>
        <time>2011-10-02T08:01:44Z</time>
      </trkpt>
      <trkpt lat="45.70299" lon="6.04007">
        <ele>1373</ele>
        <time>2011-10-02T08:02:05Z</time>
      </trkpt>
      <trkpt lat="45.70324" lon="6.04038">
        <ele>1364</ele>
        <time>2011-10-02T08:02:25Z</time>
      </trkpt>
      <trkpt lat="45.70335" lon="6.04054">
        <ele>1363</ele>
        <time>2011-10-02T08:02:45Z</time>
      </trkpt>
      <trkpt lat="45.70346" lon="6.04086">
        <ele>1366</ele>
        <time>2011-10-02T08:03:05Z</time>
      </trkpt>
      <trkpt lat="45.70368" lon="6.04095">
        <ele>1376</ele>
        <time>2011-10-02T08:03:25Z</time>
      </trkpt>
      <trkpt lat="45.70368" lon="6.04111">
        <ele>1379</ele>
        <time>2011-10-02T08:03:45Z</time>
      </trkpt>
      <trkpt lat="45.70375" lon="6.0413">
        <ele>1377</ele>
        <time>2011-10-02T08:04:05Z</time>
      </trkpt>
      <trkpt lat="45.7036" lon="6.04144">
        <ele>1373</ele>
        <time>2011-10-02T08:04:25Z</time>
      </trkpt>
      <trkpt lat="45.70344" lon="6.04167">
        <ele>1375</ele>
        <time>2011-10-02T08:04:45Z</time>
      </trkpt>
      <trkpt lat="45.70338" lon="6.04185">
        <ele>1384</ele>
        <time>2011-10-02T08:05:06Z</time>
      </trkpt>
      <trkpt lat="45.70325" lon="6.04204">
        <ele>1389</ele>
        <time>2011-10-02T08:05:27Z</time>
      </trkpt>
      <trkpt lat="45.70319" lon="6.04231">
        <ele>1393</ele>
        <time>2011-10-02T08:05:49Z</time>
      </trkpt>
      <trkpt lat="45.70343" lon="6.04217">
        <ele>1390</ele>
        <time>2011-10-02T08:06:09Z</time>
      </trkpt>
      <trkpt lat="45.70359" lon="6.04208">
        <ele>1390</ele>
        <time>2011-10-02T08:06:29Z</time>
      </trkpt>
      <trkpt lat="45.70352" lon="6.04211">
        <ele>1394</ele>
        <time>2011-10-02T08:06:51Z</time>
      </trkpt>
      <trkpt lat="45.70356" lon="6.04196">
        <ele>1397</ele>
        <time>2011-10-02T08:07:12Z</time>
      </trkpt>
      <trkpt lat="45.70355" lon="6.04174">
        <ele>1384</ele>
        <time>2011-10-02T08:07:32Z</time>
      </trkpt>
      <trkpt lat="45.70354" lon="6.04156">
        <ele>1374</ele>
        <time>2011-10-02T08:07:52Z</time>
      </trkpt>
      <trkpt lat="45.70358" lon="6.04135">
        <ele>1368</ele>
        <time>2011-10-02T08:08:12Z</time>
      </trkpt>
      <trkpt lat="45.70361" lon="6.04112">
        <ele>1364</ele>
        <time>2011-10-02T08:08:32Z</time>
      </trkpt>
      <trkpt lat="45.7037" lon="6.04086">
        <ele>1353</ele>
        <time>2011-10-02T08:08:52Z</time>
      </trkpt>
      <trkpt lat="45.70383" lon="6.04066">
        <ele>1353</ele>
        <time>2011-10-02T08:09:12Z</time>
      </trkpt>
      <trkpt lat="45.70394" lon="6.04037">
        <ele>1353</ele>
        <time>2011-10-02T08:09:32Z</time>
      </trkpt>
      <trkpt lat="45.70408" lon="6.04008">
        <ele>1353</ele>
        <time>2011-10-02T08:09:53Z</time>
      </trkpt>
      <trkpt lat="45.70437" lon="6.03981">
        <ele>1354</ele>
        <time>2011-10-02T08:10:13Z</time>
      </trkpt>
      <trkpt lat="45.70471" lon="6.03952">
        <ele>1358</ele>
        <time>2011-10-02T08:10:33Z</time>
      </trkpt>
      <trkpt lat="45.70507" lon="6.03921">
        <ele>1361</ele>
        <time>2011-10-02T08:10:53Z</time>
      </trkpt>
      <trkpt lat="45.70539" lon="6.03889">
        <ele>1362</ele>
        <time>2011-10-02T08:11:13Z</time>
      </trkpt>
      <trkpt lat="45.70564" lon="6.03875">
        <ele>1362</ele>
        <time>2011-10-02T08:11:33Z</time>
      </trkpt>
      <trkpt lat="45.70606" lon="6.03851">
        <ele>1362</ele>
        <time>2011-10-02T08:11:54Z</time>
      </trkpt>
      <trkpt lat="45.70639" lon="6.03846">
        <ele>1364</ele>
        <time>2011-10-02T08:12:14Z</time>
      </trkpt>
      <trkpt lat="45.70652" lon="6.03862">
        <ele>1369</ele>
        <time>2011-10-02T08:12:35Z</time>
      </trkpt>
      <trkpt lat="45.70668" lon="6.03855">
        <ele>1374</ele>
        <time>2011-10-02T08:12:56Z</time>
      </trkpt>
      <trkpt lat="45.70674" lon="6.03852">
        <ele>1386</ele>
        <time>2011-10-02T08:13:24Z</time>
      </trkpt>
      <trkpt lat="45.70677" lon="6.0385">
        <ele>1390</ele>
        <time>2011-10-02T08:13:47Z</time>
      </trkpt>
      <trkpt lat="45.70695" lon="6.03826">
        <ele>1379</ele>
        <time>2011-10-02T08:14:09Z</time>
      </trkpt>
      <trkpt lat="45.70697" lon="6.03796">
        <ele>1375</ele>
        <time>2011-10-02T08:14:40Z</time>
      </trkpt>
      <trkpt lat="45.70709" lon="6.03757">
        <ele>1375</ele>
        <time>2011-10-02T08:15:00Z</time>
      </trkpt>
      <trkpt lat="45.70718" lon="6.0372">
        <ele>1376</ele>
        <time>2011-10-02T08:15:21Z</time>
      </trkpt>
      <trkpt lat="45.70724" lon="6.03686">
        <ele>1380</ele>
        <time>2011-10-02T08:15:41Z</time>
      </trkpt>
      <trkpt lat="45.70737" lon="6.03656">
        <ele>1382</ele>
        <time>2011-10-02T08:16:02Z</time>
      </trkpt>
      <trkpt lat="45.70746" lon="6.03625">
        <ele>1385</ele>
        <time>2011-10-02T08:16:22Z</time>
      </trkpt>
      <trkpt lat="45.70753" lon="6.03593">
        <ele>1388</ele>
        <time>2011-10-02T08:16:42Z</time>
      </trkpt>
      <trkpt lat="45.70755" lon="6.03557">
        <ele>1389</ele>
        <time>2011-10-02T08:17:02Z</time>
      </trkpt>
      <trkpt lat="45.70757" lon="6.03521">
        <ele>1390</ele>
        <time>2011-10-02T08:17:22Z</time>
      </trkpt>
      <trkpt lat="45.70756" lon="6.03495">
        <ele>1393</ele>
        <time>2011-10-02T08:17:43Z</time>
      </trkpt>
      <trkpt lat="45.70752" lon="6.03446">
        <ele>1393</ele>
        <time>2011-10-02T08:18:03Z</time>
      </trkpt>
      <trkpt lat="45.7075" lon="6.03412">
        <ele>1386</ele>
        <time>2011-10-02T08:18:23Z</time>
      </trkpt>
      <trkpt lat="45.70752" lon="6.03409">
        <ele>1386</ele>
        <time>2011-10-02T08:18:44Z</time>
      </trkpt>
      <trkpt lat="45.70765" lon="6.03388">
        <ele>1392</ele>
        <time>2011-10-02T08:19:04Z</time>
      </trkpt>
      <trkpt lat="45.7078" lon="6.0336">
        <ele>1395</ele>
        <time>2011-10-02T08:19:25Z</time>
      </trkpt>
      <trkpt lat="45.70791" lon="6.03334">
        <ele>1400</ele>
        <time>2011-10-02T08:19:46Z</time>
      </trkpt>
      <trkpt lat="45.708" lon="6.03299">
        <ele>1402</ele>
        <time>2011-10-02T08:20:07Z</time>
      </trkpt>
      <trkpt lat="45.70816" lon="6.03263">
        <ele>1404</ele>
        <time>2011-10-02T08:20:27Z</time>
      </trkpt>
      <trkpt lat="45.70839" lon="6.03241">
        <ele>1403</ele>
        <time>2011-10-02T08:20:47Z</time>
      </trkpt>
      <trkpt lat="45.70856" lon="6.03224">
        <ele>1403</ele>
        <time>2011-10-02T08:21:07Z</time>
      </trkpt>
      <trkpt lat="45.70874" lon="6.03202">
        <ele>1403</ele>
        <time>2011-10-02T08:21:28Z</time>
      </trkpt>
      <trkpt lat="45.70888" lon="6.03179">
        <ele>1406</ele>
        <time>2011-10-02T08:21:49Z</time>
      </trkpt>
      <trkpt lat="45.70905" lon="6.03178">
        <ele>1411</ele>
        <time>2011-10-02T08:22:10Z</time>
      </trkpt>
      <trkpt lat="45.7091" lon="6.03183">
        <ele>1415</ele>
        <time>2011-10-02T08:22:30Z</time>
      </trkpt>
      <trkpt lat="45.70921" lon="6.03188">
        <ele>1420</ele>
        <time>2011-10-02T08:22:50Z</time>
      </trkpt>
      <trkpt lat="45.70933" lon="6.03186">
        <ele>1426</ele>
        <time>2011-10-02T08:23:10Z</time>
      </trkpt>
      <trkpt lat="45.70949" lon="6.03184">
        <ele>1432</ele>
        <time>2011-10-02T08:23:31Z</time>
      </trkpt>
      <trkpt lat="45.70966" lon="6.03186">
        <ele>1433</ele>
        <time>2011-10-02T08:23:54Z</time>
      </trkpt>
      <trkpt lat="45.70955" lon="6.03182">
        <ele>1434</ele>
        <time>2011-10-02T08:24:14Z</time>
      </trkpt>
      <trkpt lat="45.70954" lon="6.03178">
        <ele>1435</ele>
        <time>2011-10-02T08:24:34Z</time>
      </trkpt>
      <trkpt lat="45.70953" lon="6.03181">
        <ele>1438</ele>
        <time>2011-10-02T08:25:10Z</time>
      </trkpt>
      <trkpt lat="45.70953" lon="6.03174">
        <ele>1440</ele>
        <time>2011-10-02T08:25:32Z</time>
      </trkpt>
      <trkpt lat="45.70948" lon="6.03149">
        <ele>1438</ele>
        <time>2011-10-02T08:25:52Z</time>
      </trkpt>
      <trkpt lat="45.70905" lon="6.03125">
        <ele>1421</ele>
        <time>2011-10-02T08:26:12Z</time>
      </trkpt>
      <trkpt lat="45.70841" lon="6.03116">
        <ele>1410</ele>
        <time>2011-10-02T08:26:32Z</time>
      </trkpt>
      <trkpt lat="45.70797" lon="6.03093">
        <ele>1407</ele>
        <time>2011-10-02T08:27:10Z</time>
      </trkpt>
      <trkpt lat="45.70794" lon="6.03095">
        <ele>1407</ele>
        <time>2011-10-02T08:27:31Z</time>
      </trkpt>
      <trkpt lat="45.70773" lon="6.03115">
        <ele>1408</ele>
        <time>2011-10-02T08:27:51Z</time>
      </trkpt>
      <trkpt lat="45.70734" lon="6.03148">
        <ele>1408</ele>
        <time>2011-10-02T08:28:11Z</time>
      </trkpt>
      <trkpt lat="45.70699" lon="6.03163">
        <ele>1404</ele>
        <time>2011-10-02T08:28:32Z</time>
      </trkpt>
      <trkpt lat="45.70685" lon="6.03159">
        <ele>1397</ele>
        <time>2011-10-02T08:28:52Z</time>
      </trkpt>
      <trkpt lat="45.70665" lon="6.03165">
        <ele>1396</ele>
        <time>2011-10-02T08:29:12Z</time>
      </trkpt>
      <trkpt lat="45.70661" lon="6.03153">
        <ele>1391</ele>
        <time>2011-10-02T08:29:37Z</time>
      </trkpt>
      <trkpt lat="45.70641" lon="6.03148">
        <ele>1391</ele>
        <time>2011-10-02T08:29:57Z</time>
      </trkpt>
      <trkpt lat="45.70598" lon="6.03163">
        <ele>1390</ele>
        <time>2011-10-02T08:30:17Z</time>
      </trkpt>
      <trkpt lat="45.70562" lon="6.03169">
        <ele>1381</ele>
        <time>2011-10-02T08:30:38Z</time>
      </trkpt>
      <trkpt lat="45.70532" lon="6.03173">
        <ele>1370</ele>
        <time>2011-10-02T08:30:59Z</time>
      </trkpt>
      <trkpt lat="45.70507" lon="6.03181">
        <ele>1367</ele>
        <time>2011-10-02T08:31:19Z</time>
      </trkpt>
      <trkpt lat="45.7049" lon="6.03183">
        <ele>1363</ele>
        <time>2011-10-02T08:31:39Z</time>
      </trkpt>
      <trkpt lat="45.70464" lon="6.03186">
        <ele>1361</ele>
        <time>2011-10-02T08:31:59Z</time>
      </trkpt>
      <trkpt lat="45.70445" lon="6.03187">
        <ele>1360</ele>
        <time>2011-10-02T08:32:20Z</time>
      </trkpt>
      <trkpt lat="45.7041" lon="6.03224">
        <ele>1358</ele>
        <time>2011-10-02T08:32:40Z</time>
      </trkpt>
      <trkpt lat="45.70395" lon="6.03241">
        <ele>1358</ele>
        <time>2011-10-02T08:33:13Z</time>
      </trkpt>
      <trkpt lat="45.70363" lon="6.03267">
        <ele>1357</ele>
        <time>2011-10-02T08:33:33Z</time>
      </trkpt>
      <trkpt lat="45.70329" lon="6.03265">
        <ele>1347</ele>
        <time>2011-10-02T08:33:54Z</time>
      </trkpt>
      <trkpt lat="45.70308" lon="6.03262">
        <ele>1339</ele>
        <time>2011-10-02T08:34:15Z</time>
      </trkpt>
      <trkpt lat="45.7028" lon="6.03263">
        <ele>1328</ele>
        <time>2011-10-02T08:34:35Z</time>
      </trkpt>
      <trkpt lat="45.70261" lon="6.03261">
        <ele>1322</ele>
        <time>2011-10-02T08:34:56Z</time>
      </trkpt>
      <trkpt lat="45.70245" lon="6.0327">
        <ele>1317</ele>
        <time>2011-10-02T08:35:17Z</time>
      </trkpt>
      <trkpt lat="45.70222" lon="6.03269">
        <ele>1314</ele>
        <time>2011-10-02T08:35:39Z</time>
      </trkpt>
      <trkpt lat="45.70208" lon="6.03228">
        <ele>1313</ele>
        <time>2011-10-02T08:35:59Z</time>
      </trkpt>
      <trkpt lat="45.70196" lon="6.03205">
        <ele>1308</ele>
        <time>2011-10-02T08:36:20Z</time>
      </trkpt>
      <trkpt lat="45.70181" lon="6.03179">
        <ele>1296</ele>
        <time>2011-10-02T08:36:41Z</time>
      </trkpt>
      <trkpt lat="45.70163" lon="6.03155">
        <ele>1287</ele>
        <time>2011-10-02T08:37:01Z</time>
      </trkpt>
      <trkpt lat="45.70156" lon="6.03136">
        <ele>1284</ele>
        <time>2011-10-02T08:37:23Z</time>
      </trkpt>
      <trkpt lat="45.70147" lon="6.03112">
        <ele>1279</ele>
        <time>2011-10-02T08:37:43Z</time>
      </trkpt>
      <trkpt lat="45.70147" lon="6.03094">
        <ele>1279</ele>
        <time>2011-10-02T08:38:05Z</time>
      </trkpt>
      <trkpt lat="45.70147" lon="6.03094">
        <ele>1279</ele>
        <time>2011-10-02T08:38:25Z</time>
      </trkpt>
      <trkpt lat="45.70142" lon="6.03085">
        <ele>1289</ele>
        <time>2011-10-02T08:38:46Z</time>
      </trkpt>
      <trkpt lat="45.70132" lon="6.03061">
        <ele>1288</ele>
        <time>2011-10-02T08:39:06Z</time>
      </trkpt>
      <trkpt lat="45.7012" lon="6.0307">
        <ele>1283</ele>
        <time>2011-10-02T08:39:26Z</time>
      </trkpt>
      <trkpt lat="45.70113" lon="6.03067">
        <ele>1267</ele>
        <time>2011-10-02T08:39:59Z</time>
      </trkpt>
      <trkpt lat="45.70089" lon="6.03055">
        <ele>1264</ele>
        <time>2011-10-02T08:40:19Z</time>
      </trkpt>
      <trkpt lat="45.70052" lon="6.03038">
        <ele>1264</ele>
        <time>2011-10-02T08:40:39Z</time>
      </trkpt>
      <trkpt lat="45.7003" lon="6.03024">
        <ele>1264</ele>
        <time>2011-10-02T08:41:00Z</time>
      </trkpt>
      <trkpt lat="45.69992" lon="6.02996">
        <ele>1264</ele>
        <time>2011-10-02T08:41:20Z</time>
      </trkpt>
      <trkpt lat="45.69976" lon="6.02983">
        <ele>1262</ele>
        <time>2011-10-02T08:41:41Z</time>
      </trkpt>
      <trkpt lat="45.69958" lon="6.02986">
        <ele>1262</ele>
        <time>2011-10-02T08:42:02Z</time>
      </trkpt>
      <trkpt lat="45.69931" lon="6.02985">
        <ele>1262</ele>
        <time>2011-10-02T08:42:23Z</time>
      </trkpt>
      <trkpt lat="45.69914" lon="6.02997">
        <ele>1261</ele>
        <time>2011-10-02T08:42:43Z</time>
      </trkpt>
      <trkpt lat="45.69911" lon="6.03001">
        <ele>1261</ele>
        <time>2011-10-02T08:43:03Z</time>
      </trkpt>
      <trkpt lat="45.69909" lon="6.03021">
        <ele>1267</ele>
        <time>2011-10-02T08:43:24Z</time>
      </trkpt>
      <trkpt lat="45.69907" lon="6.0304">
        <ele>1271</ele>
        <time>2011-10-02T08:43:45Z</time>
      </trkpt>
      <trkpt lat="45.69906" lon="6.03057">
        <ele>1278</ele>
        <time>2011-10-02T08:44:07Z</time>
      </trkpt>
      <trkpt lat="45.69907" lon="6.03072">
        <ele>1281</ele>
        <time>2011-10-02T08:44:39Z</time>
      </trkpt>
      <trkpt lat="45.69909" lon="6.03076">
        <ele>1284</ele>
        <time>2011-10-02T08:45:01Z</time>
      </trkpt>
      <trkpt lat="45.69911" lon="6.03091">
        <ele>1284</ele>
        <time>2011-10-02T08:45:21Z</time>
      </trkpt>
      <trkpt lat="45.69896" lon="6.0312">
        <ele>1284</ele>
        <time>2011-10-02T08:45:42Z</time>
      </trkpt>
      <trkpt lat="45.69886" lon="6.03151">
        <ele>1287</ele>
        <time>2011-10-02T08:46:02Z</time>
      </trkpt>
      <trkpt lat="45.69875" lon="6.03188">
        <ele>1290</ele>
        <time>2011-10-02T08:46:22Z</time>
      </trkpt>
      <trkpt lat="45.69854" lon="6.03227">
        <ele>1290</ele>
        <time>2011-10-02T08:46:42Z</time>
      </trkpt>
      <trkpt lat="45.69824" lon="6.03276">
        <ele>1291</ele>
        <time>2011-10-02T08:47:02Z</time>
      </trkpt>
      <trkpt lat="45.69807" lon="6.03331">
        <ele>1291</ele>
        <time>2011-10-02T08:47:22Z</time>
      </trkpt>
      <trkpt lat="45.6981" lon="6.03374">
        <ele>1291</ele>
        <time>2011-10-02T08:47:42Z</time>
      </trkpt>
      <trkpt lat="45.69796" lon="6.03447">
        <ele>1286</ele>
        <time>2011-10-02T08:48:02Z</time>
      </trkpt>
      <trkpt lat="45.69763" lon="6.03507">
        <ele>1279</ele>
        <time>2011-10-02T08:48:22Z</time>
      </trkpt>
      <trkpt lat="45.69753" lon="6.03522">
        <ele>1276</ele>
        <time>2011-10-02T08:48:42Z</time>
      </trkpt>
      <trkpt lat="45.69727" lon="6.03535">
        <ele>1272</ele>
        <time>2011-10-02T08:49:02Z</time>
      </trkpt>
      <trkpt lat="45.69733" lon="6.03567">
        <ele>1272</ele>
        <time>2011-10-02T08:49:24Z</time>
      </trkpt>
      <trkpt lat="45.69743" lon="6.03623">
        <ele>1272</ele>
        <time>2011-10-02T08:49:44Z</time>
      </trkpt>
      <trkpt lat="45.69738" lon="6.03674">
        <ele>1272</ele>
        <time>2011-10-02T08:50:04Z</time>
      </trkpt>
      <trkpt lat="45.69726" lon="6.03725">
        <ele>1271</ele>
        <time>2011-10-02T08:50:24Z</time>
      </trkpt>
      <trkpt lat="45.69718" lon="6.03759">
        <ele>1282</ele>
        <time>2011-10-02T08:50:45Z</time>
      </trkpt>
      <trkpt lat="45.6973" lon="6.03801">
        <ele>1283</ele>
        <time>2011-10-02T08:51:05Z</time>
      </trkpt>
      <trkpt lat="45.69733" lon="6.03813">
        <ele>1288</ele>
        <time>2011-10-02T08:51:43Z</time>
      </trkpt>
      <trkpt lat="45.69733" lon="6.03815">
        <ele>1293</ele>
        <time>2011-10-02T08:52:03Z</time>
      </trkpt>
      <trkpt lat="45.69732" lon="6.03828">
        <ele>1293</ele>
        <time>2011-10-02T08:52:30Z</time>
      </trkpt>
      <trkpt lat="45.69724" lon="6.03804">
        <ele>1291</ele>
        <time>2011-10-02T08:52:50Z</time>
      </trkpt>
      <trkpt lat="45.69701" lon="6.03794">
        <ele>1285</ele>
        <time>2011-10-02T08:53:10Z</time>
      </trkpt>
      <trkpt lat="45.69685" lon="6.038">
        <ele>1279</ele>
        <time>2011-10-02T08:53:30Z</time>
      </trkpt>
      <trkpt lat="45.69674" lon="6.03802">
        <ele>1279</ele>
        <time>2011-10-02T08:53:50Z</time>
      </trkpt>
      <trkpt lat="45.6966" lon="6.03793">
        <ele>1279</ele>
        <time>2011-10-02T08:54:10Z</time>
      </trkpt>
      <trkpt lat="45.69646" lon="6.03786">
        <ele>1270</ele>
        <time>2011-10-02T08:54:30Z</time>
      </trkpt>
      <trkpt lat="45.6963" lon="6.03774">
        <ele>1261</ele>
        <time>2011-10-02T08:54:50Z</time>
      </trkpt>
      <trkpt lat="45.69615" lon="6.03766">
        <ele>1250</ele>
        <time>2011-10-02T08:55:10Z</time>
      </trkpt>
      <trkpt lat="45.69605" lon="6.03745">
        <ele>1248</ele>
        <time>2011-10-02T08:55:30Z</time>
      </trkpt>
      <trkpt lat="45.69601" lon="6.03705">
        <ele>1248</ele>
        <time>2011-10-02T08:55:50Z</time>
      </trkpt>
      <trkpt lat="45.69586" lon="6.03653">
        <ele>1248</ele>
        <time>2011-10-02T08:56:11Z</time>
      </trkpt>
      <trkpt lat="45.69568" lon="6.03645">
        <ele>1247</ele>
        <time>2011-10-02T08:56:31Z</time>
      </trkpt>
      <trkpt lat="45.69545" lon="6.03603">
        <ele>1247</ele>
        <time>2011-10-02T08:56:51Z</time>
      </trkpt>
      <trkpt lat="45.69518" lon="6.03557">
        <ele>1246</ele>
        <time>2011-10-02T08:57:11Z</time>
      </trkpt>
      <trkpt lat="45.69497" lon="6.03526">
        <ele>1244</ele>
        <time>2011-10-02T08:57:32Z</time>
      </trkpt>
      <trkpt lat="45.69477" lon="6.035">
        <ele>1244</ele>
        <time>2011-10-02T08:57:53Z</time>
      </trkpt>
      <trkpt lat="45.6947" lon="6.03478">
        <ele>1246</ele>
        <time>2011-10-02T08:58:13Z</time>
      </trkpt>
      <trkpt lat="45.69458" lon="6.03452">
        <ele>1250</ele>
        <time>2011-10-02T08:58:33Z</time>
      </trkpt>
      <trkpt lat="45.69434" lon="6.03428">
        <ele>1254</ele>
        <time>2011-10-02T08:58:53Z</time>
      </trkpt>
      <trkpt lat="45.69418" lon="6.03395">
        <ele>1256</ele>
        <time>2011-10-02T08:59:14Z</time>
      </trkpt>
      <trkpt lat="45.69395" lon="6.03385">
        <ele>1258</ele>
        <time>2011-10-02T08:59:35Z</time>
      </trkpt>
      <trkpt lat="45.69376" lon="6.0337">
        <ele>1261</ele>
        <time>2011-10-02T08:59:55Z</time>
      </trkpt>
      <trkpt lat="45.69358" lon="6.03345">
        <ele>1263</ele>
        <time>2011-10-02T09:00:16Z</time>
      </trkpt>
      <trkpt lat="45.69339" lon="6.03323">
        <ele>1268</ele>
        <time>2011-10-02T09:00:37Z</time>
      </trkpt>
      <trkpt lat="45.69319" lon="6.03317">
        <ele>1272</ele>
        <time>2011-10-02T09:00:57Z</time>
      </trkpt>
      <trkpt lat="45.69298" lon="6.03313">
        <ele>1278</ele>
        <time>2011-10-02T09:01:17Z</time>
      </trkpt>
      <trkpt lat="45.6928" lon="6.0329">
        <ele>1283</ele>
        <time>2011-10-02T09:01:37Z</time>
      </trkpt>
      <trkpt lat="45.69273" lon="6.03257">
        <ele>1286</ele>
        <time>2011-10-02T09:01:57Z</time>
      </trkpt>
      <trkpt lat="45.69266" lon="6.03255">
        <ele>1286</ele>
        <time>2011-10-02T09:02:17Z</time>
      </trkpt>
      <trkpt lat="45.69239" lon="6.03241">
        <ele>1288</ele>
        <time>2011-10-02T09:02:37Z</time>
      </trkpt>
      <trkpt lat="45.6922" lon="6.03225">
        <ele>1289</ele>
        <time>2011-10-02T09:02:57Z</time>
      </trkpt>
      <trkpt lat="45.69198" lon="6.03198">
        <ele>1291</ele>
        <time>2011-10-02T09:03:17Z</time>
      </trkpt>
      <trkpt lat="45.69184" lon="6.03186">
        <ele>1293</ele>
        <time>2011-10-02T09:03:38Z</time>
      </trkpt>
      <trkpt lat="45.69184" lon="6.03186">
        <ele>1297</ele>
        <time>2011-10-02T09:04:03Z</time>
      </trkpt>
      <trkpt lat="45.69168" lon="6.03162">
        <ele>1297</ele>
        <time>2011-10-02T09:04:24Z</time>
      </trkpt>
      <trkpt lat="45.69142" lon="6.03143">
        <ele>1301</ele>
        <time>2011-10-02T09:04:44Z</time>
      </trkpt>
      <trkpt lat="45.69126" lon="6.03116">
        <ele>1305</ele>
        <time>2011-10-02T09:05:04Z</time>
      </trkpt>
      <trkpt lat="45.69113" lon="6.03063">
        <ele>1306</ele>
        <time>2011-10-02T09:05:24Z</time>
      </trkpt>
      <trkpt lat="45.69091" lon="6.03033">
        <ele>1310</ele>
        <time>2011-10-02T09:05:44Z</time>
      </trkpt>
      <trkpt lat="45.69061" lon="6.03013">
        <ele>1311</ele>
        <time>2011-10-02T09:06:04Z</time>
      </trkpt>
      <trkpt lat="45.69024" lon="6.03004">
        <ele>1312</ele>
        <time>2011-10-02T09:06:24Z</time>
      </trkpt>
      <trkpt lat="45.68991" lon="6.02985">
        <ele>1312</ele>
        <time>2011-10-02T09:06:44Z</time>
      </trkpt>
      <trkpt lat="45.68955" lon="6.02966">
        <ele>1311</ele>
        <time>2011-10-02T09:07:04Z</time>
      </trkpt>
      <trkpt lat="45.68932" lon="6.0295">
        <ele>1311</ele>
        <time>2011-10-02T09:07:24Z</time>
      </trkpt>
      <trkpt lat="45.68913" lon="6.02926">
        <ele>1311</ele>
        <time>2011-10-02T09:07:46Z</time>
      </trkpt>
      <trkpt lat="45.68924" lon="6.02908">
        <ele>1310</ele>
        <time>2011-10-02T09:08:06Z</time>
      </trkpt>
      <trkpt lat="45.68958" lon="6.02914">
        <ele>1310</ele>
        <time>2011-10-02T09:08:26Z</time>
      </trkpt>
      <trkpt lat="45.68973" lon="6.02926">
        <ele>1310</ele>
        <time>2011-10-02T09:08:48Z</time>
      </trkpt>
      <trkpt lat="45.68975" lon="6.0292">
        <ele>1311</ele>
        <time>2011-10-02T09:09:09Z</time>
      </trkpt>
      <trkpt lat="45.68969" lon="6.02919">
        <ele>1311</ele>
        <time>2011-10-02T09:09:30Z</time>
      </trkpt>
      <trkpt lat="45.68969" lon="6.0292">
        <ele>1312</ele>
        <time>2011-10-02T09:10:05Z</time>
      </trkpt>
      <trkpt lat="45.68956" lon="6.02908">
        <ele>1307</ele>
        <time>2011-10-02T09:10:34Z</time>
      </trkpt>
      <trkpt lat="45.68944" lon="6.02909">
        <ele>1310</ele>
        <time>2011-10-02T09:10:58Z</time>
      </trkpt>
      <trkpt lat="45.68916" lon="6.02917">
        <ele>1310</ele>
        <time>2011-10-02T09:11:19Z</time>
      </trkpt>
      <trkpt lat="45.68895" lon="6.02899">
        <ele>1310</ele>
        <time>2011-10-02T09:11:40Z</time>
      </trkpt>
      <trkpt lat="45.68873" lon="6.0288">
        <ele>1310</ele>
        <time>2011-10-02T09:12:00Z</time>
      </trkpt>
      <trkpt lat="45.68869" lon="6.02879">
        <ele>1310</ele>
        <time>2011-10-02T09:12:30Z</time>
      </trkpt>
      <trkpt lat="45.68863" lon="6.02871">
        <ele>1313</ele>
        <time>2011-10-02T09:12:50Z</time>
      </trkpt>
      <trkpt lat="45.68849" lon="6.02813">
        <ele>1314</ele>
        <time>2011-10-02T09:13:10Z</time>
      </trkpt>
      <trkpt lat="45.68847" lon="6.02762">
        <ele>1318</ele>
        <time>2011-10-02T09:13:31Z</time>
      </trkpt>
      <trkpt lat="45.68853" lon="6.02721">
        <ele>1322</ele>
        <time>2011-10-02T09:13:51Z</time>
      </trkpt>
      <trkpt lat="45.68856" lon="6.02685">
        <ele>1325</ele>
        <time>2011-10-02T09:14:11Z</time>
      </trkpt>
      <trkpt lat="45.68857" lon="6.02651">
        <ele>1327</ele>
        <time>2011-10-02T09:14:31Z</time>
      </trkpt>
      <trkpt lat="45.68852" lon="6.02611">
        <ele>1328</ele>
        <time>2011-10-02T09:14:51Z</time>
      </trkpt>
      <trkpt lat="45.68839" lon="6.02571">
        <ele>1328</ele>
        <time>2011-10-02T09:15:11Z</time>
      </trkpt>
      <trkpt lat="45.68829" lon="6.02525">
        <ele>1334</ele>
        <time>2011-10-02T09:15:31Z</time>
      </trkpt>
      <trkpt lat="45.68811" lon="6.02476">
        <ele>1336</ele>
        <time>2011-10-02T09:15:51Z</time>
      </trkpt>
      <trkpt lat="45.68803" lon="6.0243">
        <ele>1340</ele>
        <time>2011-10-02T09:16:11Z</time>
      </trkpt>
      <trkpt lat="45.68806" lon="6.02392">
        <ele>1341</ele>
        <time>2011-10-02T09:16:31Z</time>
      </trkpt>
      <trkpt lat="45.68839" lon="6.02345">
        <ele>1340</ele>
        <time>2011-10-02T09:16:51Z</time>
      </trkpt>
      <trkpt lat="45.68858" lon="6.02303">
        <ele>1340</ele>
        <time>2011-10-02T09:17:11Z</time>
      </trkpt>
      <trkpt lat="45.68917" lon="6.02284">
        <ele>1340</ele>
        <time>2011-10-02T09:17:31Z</time>
      </trkpt>
      <trkpt lat="45.68967" lon="6.02248">
        <ele>1338</ele>
        <time>2011-10-02T09:17:51Z</time>
      </trkpt>
      <trkpt lat="45.68994" lon="6.02233">
        <ele>1335</ele>
        <time>2011-10-02T09:18:11Z</time>
      </trkpt>
      <trkpt lat="45.68986" lon="6.02228">
        <ele>1335</ele>
        <time>2011-10-02T09:18:31Z</time>
      </trkpt>
      <trkpt lat="45.68977" lon="6.0223">
        <ele>1335</ele>
        <time>2011-10-02T09:18:52Z</time>
      </trkpt>
      <trkpt lat="45.68964" lon="6.02255">
        <ele>1335</ele>
        <time>2011-10-02T09:19:12Z</time>
      </trkpt>
      <trkpt lat="45.68939" lon="6.0227">
        <ele>1335</ele>
        <time>2011-10-02T09:19:32Z</time>
      </trkpt>
      <trkpt lat="45.68897" lon="6.02295">
        <ele>1335</ele>
        <time>2011-10-02T09:19:52Z</time>
      </trkpt>
      <trkpt lat="45.68872" lon="6.023">
        <ele>1335</ele>
        <time>2011-10-02T09:20:12Z</time>
      </trkpt>
      <trkpt lat="45.68829" lon="6.0232">
        <ele>1338</ele>
        <time>2011-10-02T09:20:33Z</time>
      </trkpt>
      <trkpt lat="45.68786" lon="6.02344">
        <ele>1339</ele>
        <time>2011-10-02T09:20:53Z</time>
      </trkpt>
      <trkpt lat="45.68745" lon="6.02364">
        <ele>1340</ele>
        <time>2011-10-02T09:21:14Z</time>
      </trkpt>
      <trkpt lat="45.687" lon="6.02388">
        <ele>1342</ele>
        <time>2011-10-02T09:21:35Z</time>
      </trkpt>
      <trkpt lat="45.68666" lon="6.02412">
        <ele>1344</ele>
        <time>2011-10-02T09:21:55Z</time>
      </trkpt>
      <trkpt lat="45.68632" lon="6.02446">
        <ele>1344</ele>
        <time>2011-10-02T09:22:16Z</time>
      </trkpt>
      <trkpt lat="45.68629" lon="6.02446">
        <ele>1341</ele>
        <time>2011-10-02T09:22:54Z</time>
      </trkpt>
      <trkpt lat="45.68628" lon="6.02449">
        <ele>1340</ele>
        <time>2011-10-02T09:23:45Z</time>
      </trkpt>
      <trkpt lat="45.68592" lon="6.025">
        <ele>1339</ele>
        <time>2011-10-02T09:24:05Z</time>
      </trkpt>
      <trkpt lat="45.68538" lon="6.02482">
        <ele>1336</ele>
        <time>2011-10-02T09:24:25Z</time>
      </trkpt>
      <trkpt lat="45.68498" lon="6.02456">
        <ele>1336</ele>
        <time>2011-10-02T09:24:45Z</time>
      </trkpt>
      <trkpt lat="45.68474" lon="6.02457">
        <ele>1336</ele>
        <time>2011-10-02T09:25:06Z</time>
      </trkpt>
      <trkpt lat="45.68492" lon="6.02488">
        <ele>1338</ele>
        <time>2011-10-02T09:25:26Z</time>
      </trkpt>
      <trkpt lat="45.68497" lon="6.02531">
        <ele>1342</ele>
        <time>2011-10-02T09:25:46Z</time>
      </trkpt>
      <trkpt lat="45.68499" lon="6.0257">
        <ele>1347</ele>
        <time>2011-10-02T09:26:06Z</time>
      </trkpt>
      <trkpt lat="45.68494" lon="6.02598">
        <ele>1349</ele>
        <time>2011-10-02T09:26:27Z</time>
      </trkpt>
      <trkpt lat="45.68494" lon="6.02603">
        <ele>1354</ele>
        <time>2011-10-02T09:26:47Z</time>
      </trkpt>
      <trkpt lat="45.68499" lon="6.02661">
        <ele>1354</ele>
        <time>2011-10-02T09:27:07Z</time>
      </trkpt>
      <trkpt lat="45.68498" lon="6.02736">
        <ele>1349</ele>
        <time>2011-10-02T09:27:27Z</time>
      </trkpt>
      <trkpt lat="45.68484" lon="6.0281">
        <ele>1345</ele>
        <time>2011-10-02T09:27:47Z</time>
      </trkpt>
      <trkpt lat="45.68452" lon="6.02875">
        <ele>1344</ele>
        <time>2011-10-02T09:28:07Z</time>
      </trkpt>
      <trkpt lat="45.68432" lon="6.02937">
        <ele>1338</ele>
        <time>2011-10-02T09:28:27Z</time>
      </trkpt>
      <trkpt lat="45.68436" lon="6.02954">
        <ele>1336</ele>
        <time>2011-10-02T09:28:49Z</time>
      </trkpt>
      <trkpt lat="45.68439" lon="6.02961">
        <ele>1336</ele>
        <time>2011-10-02T09:29:10Z</time>
      </trkpt>
      <trkpt lat="45.68438" lon="6.02962">
        <ele>1337</ele>
        <time>2011-10-02T09:29:33Z</time>
      </trkpt>
      <trkpt lat="45.68443" lon="6.02966">
        <ele>1337</ele>
        <time>2011-10-02T09:29:53Z</time>
      </trkpt>
      <trkpt lat="45.68438" lon="6.02951">
        <ele>1337</ele>
        <time>2011-10-02T09:30:13Z</time>
      </trkpt>
      <trkpt lat="45.68441" lon="6.02894">
        <ele>1340</ele>
        <time>2011-10-02T09:30:33Z</time>
      </trkpt>
      <trkpt lat="45.68456" lon="6.02858">
        <ele>1348</ele>
        <time>2011-10-02T09:30:53Z</time>
      </trkpt>
      <trkpt lat="45.68463" lon="6.0285">
        <ele>1348</ele>
        <time>2011-10-02T09:31:13Z</time>
      </trkpt>
      <trkpt lat="45.68456" lon="6.02832">
        <ele>1347</ele>
        <time>2011-10-02T09:31:36Z</time>
      </trkpt>
      <trkpt lat="45.68454" lon="6.02833">
        <ele>1345</ele>
        <time>2011-10-02T09:31:59Z</time>
      </trkpt>
      <trkpt lat="45.68456" lon="6.02834">
        <ele>1343</ele>
        <time>2011-10-02T09:32:24Z</time>
      </trkpt>
      <trkpt lat="45.68455" lon="6.02835">
        <ele>1343</ele>
        <time>2011-10-02T09:32:46Z</time>
      </trkpt>
      <trkpt lat="45.68454" lon="6.02838">
        <ele>1343</ele>
        <time>2011-10-02T09:33:09Z</time>
      </trkpt>
      <trkpt lat="45.68449" lon="6.02877">
        <ele>1337</ele>
        <time>2011-10-02T09:33:29Z</time>
      </trkpt>
      <trkpt lat="45.68442" lon="6.02957">
        <ele>1334</ele>
        <time>2011-10-02T09:33:49Z</time>
      </trkpt>
      <trkpt lat="45.68483" lon="6.03009">
        <ele>1330</ele>
        <time>2011-10-02T09:34:09Z</time>
      </trkpt>
      <trkpt lat="45.68486" lon="6.03084">
        <ele>1332</ele>
        <time>2011-10-02T09:34:29Z</time>
      </trkpt>
      <trkpt lat="45.6849" lon="6.03166">
        <ele>1335</ele>
        <time>2011-10-02T09:34:49Z</time>
      </trkpt>
      <trkpt lat="45.6848" lon="6.03242">
        <ele>1332</ele>
        <time>2011-10-02T09:35:09Z</time>
      </trkpt>
      <trkpt lat="45.68444" lon="6.03307">
        <ele>1322</ele>
        <time>2011-10-02T09:35:29Z</time>
      </trkpt>
      <trkpt lat="45.68392" lon="6.03314">
        <ele>1320</ele>
        <time>2011-10-02T09:35:49Z</time>
      </trkpt>
      <trkpt lat="45.68336" lon="6.03304">
        <ele>1318</ele>
        <time>2011-10-02T09:36:09Z</time>
      </trkpt>
      <trkpt lat="45.68293" lon="6.03254">
        <ele>1314</ele>
        <time>2011-10-02T09:36:29Z</time>
      </trkpt>
      <trkpt lat="45.68268" lon="6.03183">
        <ele>1313</ele>
        <time>2011-10-02T09:36:49Z</time>
      </trkpt>
      <trkpt lat="45.6822" lon="6.03176">
        <ele>1313</ele>
        <time>2011-10-02T09:37:09Z</time>
      </trkpt>
      <trkpt lat="45.68169" lon="6.03189">
        <ele>1313</ele>
        <time>2011-10-02T09:37:29Z</time>
      </trkpt>
      <trkpt lat="45.68129" lon="6.03229">
        <ele>1309</ele>
        <time>2011-10-02T09:37:49Z</time>
      </trkpt>
      <trkpt lat="45.68078" lon="6.03273">
        <ele>1306</ele>
        <time>2011-10-02T09:38:09Z</time>
      </trkpt>
      <trkpt lat="45.68048" lon="6.03324">
        <ele>1304</ele>
        <time>2011-10-02T09:38:29Z</time>
      </trkpt>
      <trkpt lat="45.67995" lon="6.03323">
        <ele>1301</ele>
        <time>2011-10-02T09:38:49Z</time>
      </trkpt>
      <trkpt lat="45.6795" lon="6.03309">
        <ele>1301</ele>
        <time>2011-10-02T09:39:09Z</time>
      </trkpt>
      <trkpt lat="45.67909" lon="6.03298">
        <ele>1299</ele>
        <time>2011-10-02T09:39:29Z</time>
      </trkpt>
      <trkpt lat="45.67867" lon="6.03284">
        <ele>1298</ele>
        <time>2011-10-02T09:39:49Z</time>
      </trkpt>
      <trkpt lat="45.67825" lon="6.03278">
        <ele>1298</ele>
        <time>2011-10-02T09:40:07Z</time>
      </trkpt>
    </trkseg>
  </trk>
</gpx>